sensor_id;sensor_type;location;lat;lon;timestamp;P1;durP1;ratioP1;P2;durP2;ratioP2
37905;SDS011;23739;51.448;6.674;2022-10-16T00:01:15;4.90;;;2.95;;
37905;SDS011;23739;51.448;6.674;2022-10-16T00:03:42;4.88;;;2.70;;
37905;SDS011;23739;51.448;6.674;2022-10-16T00:06:09;5.03;;;3.20;;
37905;SDS011;23739;51.448;6.674;2022-10-16T00:08:36;4.95;;;3.17;;
37905;SDS011;23739;51.448;6.674;2022-10-16T00:11:02;6.32;;;2.95;;
37905;SDS011;23739;51.448;6.674;2022-10-16T00:13:29;7.57;;;2.30;;
37905;SDS011;23739;51.448;6.674;2022-10-16T00:15:56;6.60;;;2.55;;
37905;SDS011;23739;51.448;6.674;2022-10-16T00:18:23;10.32;;;3.00;;
37905;SDS011;23739;51.448;6.674;2022-10-16T00:20:49;5.03;;;3.70;;
37905;SDS011;23739;51.448;6.674;2022-10-16T00:23:15;5.20;;;2.85;;
37905;SDS011;23739;51.448;6.674;2022-10-16T00:25:41;8.10;;;3.00;;
37905;SDS011;23739;51.448;6.674;2022-10-16T00:28:07;6.43;;;2.72;;
37905;SDS011;23739;51.448;6.674;2022-10-16T00:30:33;7.28;;;3.25;;
37905;SDS011;23739;51.448;6.674;2022-10-16T00:32:59;5.30;;;3.00;;
37905;SDS011;23739;51.448;6.674;2022-10-16T00:35:25;4.38;;;2.85;;
37905;SDS011;23739;51.448;6.674;2022-10-16T00:37:52;5.95;;;3.20;;
37905;SDS011;23739;51.448;6.674;2022-10-16T00:40:18;3.17;;;2.50;;
37905;SDS011;23739;51.448;6.674;2022-10-16T00:42:44;5.57;;;2.83;;
37905;SDS011;23739;51.448;6.674;2022-10-16T00:45:11;5.60;;;2.72;;
37905;SDS011;23739;51.448;6.674;2022-10-16T00:47:39;7.38;;;2.70;;
37905;SDS011;23739;51.448;6.674;2022-10-16T00:50:11;7.10;;;2.50;;
37905;SDS011;23739;51.448;6.674;2022-10-16T00:52:40;5.55;;;2.78;;
37905;SDS011;23739;51.448;6.674;2022-10-16T00:55:09;5.03;;;2.40;;
37905;SDS011;23739;51.448;6.674;2022-10-16T00:57:35;5.60;;;2.72;;
37905;SDS011;23739;51.448;6.674;2022-10-16T01:00:04;6.05;;;2.63;;
37905;SDS011;23739;51.448;6.674;2022-10-16T01:02:30;7.22;;;2.53;;
37905;SDS011;23739;51.448;6.674;2022-10-16T01:04:57;5.25;;;2.53;;
37905;SDS011;23739;51.448;6.674;2022-10-16T01:12:40;9.57;;;2.60;;
37905;SDS011;23739;51.448;6.674;2022-10-16T01:15:30;7.75;;;3.08;;
37905;SDS011;23739;51.448;6.674;2022-10-16T01:18:06;7.43;;;2.90;;
37905;SDS011;23739;51.448;6.674;2022-10-16T01:29:13;9.18;;;2.60;;
37905;SDS011;23739;51.448;6.674;2022-10-16T01:31:41;4.05;;;2.53;;
37905;SDS011;23739;51.448;6.674;2022-10-16T01:34:12;4.15;;;2.50;;
37905;SDS011;23739;51.448;6.674;2022-10-16T01:36:41;5.25;;;2.53;;
37905;SDS011;23739;51.448;6.674;2022-10-16T01:39:10;6.38;;;2.53;;
37905;SDS011;23739;51.448;6.674;2022-10-16T01:41:37;5.78;;;2.53;;
37905;SDS011;23739;51.448;6.674;2022-10-16T01:44:06;5.03;;;2.58;;
37905;SDS011;23739;51.448;6.674;2022-10-16T01:46:34;7.10;;;2.08;;
37905;SDS011;23739;51.448;6.674;2022-10-16T01:49:01;2.90;;;1.95;;
37905;SDS011;23739;51.448;6.674;2022-10-16T01:51:29;5.63;;;2.75;;
37905;SDS011;23739;51.448;6.674;2022-10-16T01:53:55;7.03;;;2.63;;
37905;SDS011;23739;51.448;6.674;2022-10-16T01:56:23;5.28;;;2.28;;
37905;SDS011;23739;51.448;6.674;2022-10-16T01:58:55;3.42;;;1.60;;
37905;SDS011;23739;51.448;6.674;2022-10-16T02:01:22;7.55;;;1.80;;
37905;SDS011;23739;51.448;6.674;2022-10-16T02:03:49;3.55;;;2.20;;
37905;SDS011;23739;51.448;6.674;2022-10-16T02:06:17;5.25;;;2.65;;
37905;SDS011;23739;51.448;6.674;2022-10-16T02:08:43;3.45;;;2.55;;
37905;SDS011;23739;51.448;6.674;2022-10-16T02:11:09;7.35;;;2.22;;
37905;SDS011;23739;51.448;6.674;2022-10-16T02:13:37;4.45;;;2.22;;
37905;SDS011;23739;51.448;6.674;2022-10-16T02:16:05;5.30;;;1.90;;
37905;SDS011;23739;51.448;6.674;2022-10-16T02:18:31;2.25;;;1.92;;
37905;SDS011;23739;51.448;6.674;2022-10-16T02:26:09;3.17;;;2.08;;
37905;SDS011;23739;51.448;6.674;2022-10-16T02:28:40;3.88;;;2.13;;
37905;SDS011;23739;51.448;6.674;2022-10-16T02:31:07;3.85;;;2.20;;
37905;SDS011;23739;51.448;6.674;2022-10-16T02:33:34;5.30;;;2.00;;
37905;SDS011;23739;51.448;6.674;2022-10-16T02:36:02;3.65;;;1.80;;
37905;SDS011;23739;51.448;6.674;2022-10-16T02:38:28;7.53;;;1.90;;
37905;SDS011;23739;51.448;6.674;2022-10-16T02:40:55;3.40;;;1.55;;
37905;SDS011;23739;51.448;6.674;2022-10-16T02:43:21;4.18;;;1.45;;
37905;SDS011;23739;51.448;6.674;2022-10-16T02:45:48;4.00;;;1.60;;
37905;SDS011;23739;51.448;6.674;2022-10-16T02:48:14;2.50;;;1.73;;
37905;SDS011;23739;51.448;6.674;2022-10-16T02:50:40;3.35;;;1.75;;
37905;SDS011;23739;51.448;6.674;2022-10-16T02:53:06;2.58;;;1.33;;
37905;SDS011;23739;51.448;6.674;2022-10-16T02:55:32;5.45;;;1.30;;
37905;SDS011;23739;51.448;6.674;2022-10-16T02:57:59;3.92;;;1.63;;
37905;SDS011;23739;51.448;6.674;2022-10-16T03:00:25;1.65;;;1.20;;
37905;SDS011;23739;51.448;6.674;2022-10-16T03:02:51;3.28;;;1.30;;
37905;SDS011;23739;51.448;6.674;2022-10-16T03:05:17;4.07;;;1.50;;
37905;SDS011;23739;51.448;6.674;2022-10-16T03:07:43;2.22;;;0.90;;
37905;SDS011;23739;51.448;6.674;2022-10-16T03:10:09;5.25;;;1.20;;
37905;SDS011;23739;51.448;6.674;2022-10-16T03:12:35;3.05;;;1.00;;
37905;SDS011;23739;51.448;6.674;2022-10-16T03:15:02;0.80;;;0.75;;
37905;SDS011;23739;51.448;6.674;2022-10-16T03:17:28;2.60;;;0.98;;
37905;SDS011;23739;51.448;6.674;2022-10-16T03:19:54;1.40;;;1.30;;
37905;SDS011;23739;51.448;6.674;2022-10-16T03:22:20;2.70;;;1.05;;
37905;SDS011;23739;51.448;6.674;2022-10-16T03:24:46;3.13;;;1.05;;
37905;SDS011;23739;51.448;6.674;2022-10-16T03:27:12;7.57;;;1.00;;
37905;SDS011;23739;51.448;6.674;2022-10-16T03:29:38;1.67;;;0.85;;
37905;SDS011;23739;51.448;6.674;2022-10-16T03:32:04;7.82;;;1.17;;
37905;SDS011;23739;51.448;6.674;2022-10-16T03:34:30;2.80;;;0.82;;
37905;SDS011;23739;51.448;6.674;2022-10-16T03:36:57;4.18;;;0.80;;
37905;SDS011;23739;51.448;6.674;2022-10-16T03:39:23;1.25;;;0.70;;
37905;SDS011;23739;51.448;6.674;2022-10-16T03:41:49;3.03;;;0.80;;
37905;SDS011;23739;51.448;6.674;2022-10-16T03:44:15;2.08;;;0.90;;
37905;SDS011;23739;51.448;6.674;2022-10-16T03:46:41;1.95;;;0.85;;
37905;SDS011;23739;51.448;6.674;2022-10-16T03:49:07;2.33;;;0.90;;
37905;SDS011;23739;51.448;6.674;2022-10-16T03:51:33;3.08;;;0.93;;
37905;SDS011;23739;51.448;6.674;2022-10-16T03:53:59;3.85;;;0.80;;
37905;SDS011;23739;51.448;6.674;2022-10-16T03:56:25;1.15;;;0.90;;
37905;SDS011;23739;51.448;6.674;2022-10-16T03:58:51;3.50;;;1.00;;
37905;SDS011;23739;51.448;6.674;2022-10-16T04:01:18;4.75;;;0.98;;
37905;SDS011;23739;51.448;6.674;2022-10-16T04:03:44;2.30;;;1.00;;
37905;SDS011;23739;51.448;6.674;2022-10-16T04:06:10;4.30;;;1.05;;
37905;SDS011;23739;51.448;6.674;2022-10-16T04:08:36;3.13;;;0.73;;
37905;SDS011;23739;51.448;6.674;2022-10-16T04:11:04;0.98;;;0.70;;
37905;SDS011;23739;51.448;6.674;2022-10-16T04:13:30;2.78;;;0.95;;
37905;SDS011;23739;51.448;6.674;2022-10-16T04:15:56;1.30;;;0.88;;
37905;SDS011;23739;51.448;6.674;2022-10-16T04:18:22;0.90;;;0.80;;
37905;SDS011;23739;51.448;6.674;2022-10-16T04:20:48;2.10;;;0.90;;
37905;SDS011;23739;51.448;6.674;2022-10-16T04:23:14;1.35;;;0.80;;
37905;SDS011;23739;51.448;6.674;2022-10-16T04:25:40;3.03;;;1.20;;
37905;SDS011;23739;51.448;6.674;2022-10-16T04:28:06;1.50;;;0.85;;
37905;SDS011;23739;51.448;6.674;2022-10-16T04:30:32;1.05;;;0.68;;
37905;SDS011;23739;51.448;6.674;2022-10-16T04:32:59;1.25;;;0.77;;
37905;SDS011;23739;51.448;6.674;2022-10-16T04:35:25;1.73;;;0.77;;
37905;SDS011;23739;51.448;6.674;2022-10-16T04:37:51;2.60;;;1.02;;
37905;SDS011;23739;51.448;6.674;2022-10-16T04:40:17;0.70;;;0.60;;
37905;SDS011;23739;51.448;6.674;2022-10-16T04:42:43;1.77;;;0.73;;
37905;SDS011;23739;51.448;6.674;2022-10-16T04:45:09;1.60;;;0.90;;
37905;SDS011;23739;51.448;6.674;2022-10-16T04:47:35;1.52;;;0.70;;
37905;SDS011;23739;51.448;6.674;2022-10-16T04:50:01;2.90;;;0.70;;
37905;SDS011;23739;51.448;6.674;2022-10-16T04:52:27;1.67;;;0.55;;
37905;SDS011;23739;51.448;6.674;2022-10-16T04:54:54;3.13;;;0.85;;
37905;SDS011;23739;51.448;6.674;2022-10-16T04:57:21;2.78;;;0.70;;
37905;SDS011;23739;51.448;6.674;2022-10-16T04:59:48;2.38;;;0.90;;
37905;SDS011;23739;51.448;6.674;2022-10-16T05:02:14;1.63;;;0.90;;
37905;SDS011;23739;51.448;6.674;2022-10-16T05:04:40;2.45;;;1.00;;
37905;SDS011;23739;51.448;6.674;2022-10-16T05:07:07;1.30;;;1.00;;
37905;SDS011;23739;51.448;6.674;2022-10-16T05:09:33;2.08;;;0.90;;
37905;SDS011;23739;51.448;6.674;2022-10-16T05:11:59;1.25;;;0.75;;
37905;SDS011;23739;51.448;6.674;2022-10-16T05:14:25;2.72;;;1.80;;
37905;SDS011;23739;51.448;6.674;2022-10-16T05:16:51;1.73;;;0.80;;
37905;SDS011;23739;51.448;6.674;2022-10-16T05:19:17;1.70;;;1.00;;
37905;SDS011;23739;51.448;6.674;2022-10-16T05:21:43;4.10;;;1.05;;
37905;SDS011;23739;51.448;6.674;2022-10-16T05:24:10;6.85;;;1.50;;
37905;SDS011;23739;51.448;6.674;2022-10-16T05:26:36;2.78;;;0.80;;
37905;SDS011;23739;51.448;6.674;2022-10-16T05:29:02;3.70;;;0.90;;
37905;SDS011;23739;51.448;6.674;2022-10-16T05:31:28;1.38;;;0.88;;
37905;SDS011;23739;51.448;6.674;2022-10-16T05:34:00;1.00;;;0.90;;
37905;SDS011;23739;51.448;6.674;2022-10-16T05:36:26;0.77;;;0.60;;
37905;SDS011;23739;51.448;6.674;2022-10-16T05:38:53;2.33;;;0.82;;
37905;SDS011;23739;51.448;6.674;2022-10-16T05:41:19;7.82;;;0.90;;
37905;SDS011;23739;51.448;6.674;2022-10-16T05:43:48;2.67;;;0.75;;
37905;SDS011;23739;51.448;6.674;2022-10-16T05:46:14;1.27;;;0.68;;
37905;SDS011;23739;51.448;6.674;2022-10-16T05:48:41;2.20;;;0.90;;
37905;SDS011;23739;51.448;6.674;2022-10-16T05:51:07;1.88;;;1.00;;
37905;SDS011;23739;51.448;6.674;2022-10-16T05:53:35;1.70;;;1.00;;
37905;SDS011;23739;51.448;6.674;2022-10-16T05:56:02;1.08;;;0.82;;
37905;SDS011;23739;51.448;6.674;2022-10-16T05:58:29;1.27;;;1.02;;
37905;SDS011;23739;51.448;6.674;2022-10-16T06:00:56;1.55;;;1.20;;
37905;SDS011;23739;51.448;6.674;2022-10-16T06:03:22;2.67;;;1.20;;
37905;SDS011;23739;51.448;6.674;2022-10-16T06:05:49;2.30;;;1.13;;
37905;SDS011;23739;51.448;6.674;2022-10-16T06:08:15;2.70;;;1.40;;
37905;SDS011;23739;51.448;6.674;2022-10-16T06:10:41;2.35;;;1.30;;
37905;SDS011;23739;51.448;6.674;2022-10-16T06:13:08;4.30;;;1.30;;
37905;SDS011;23739;51.448;6.674;2022-10-16T06:15:34;2.75;;;1.35;;
37905;SDS011;23739;51.448;6.674;2022-10-16T06:18:01;1.65;;;1.20;;
37905;SDS011;23739;51.448;6.674;2022-10-16T06:20:27;7.03;;;1.55;;
37905;SDS011;23739;51.448;6.674;2022-10-16T06:22:53;2.13;;;0.98;;
37905;SDS011;23739;51.448;6.674;2022-10-16T06:25:19;3.05;;;1.33;;
37905;SDS011;23739;51.448;6.674;2022-10-16T06:27:45;4.00;;;1.55;;
37905;SDS011;23739;51.448;6.674;2022-10-16T06:30:11;3.78;;;1.52;;
37905;SDS011;23739;51.448;6.674;2022-10-16T06:32:37;2.53;;;1.10;;
37905;SDS011;23739;51.448;6.674;2022-10-16T06:35:03;4.68;;;1.38;;
37905;SDS011;23739;51.448;6.674;2022-10-16T06:37:30;2.58;;;1.60;;
37905;SDS011;23739;51.448;6.674;2022-10-16T06:39:56;3.20;;;1.60;;
37905;SDS011;23739;51.448;6.674;2022-10-16T06:42:22;3.33;;;1.60;;
37905;SDS011;23739;51.448;6.674;2022-10-16T06:44:48;5.30;;;1.40;;
37905;SDS011;23739;51.448;6.674;2022-10-16T06:47:14;3.45;;;1.55;;
37905;SDS011;23739;51.448;6.674;2022-10-16T06:49:40;1.83;;;1.30;;
37905;SDS011;23739;51.448;6.674;2022-10-16T06:52:06;2.47;;;1.55;;
37905;SDS011;23739;51.448;6.674;2022-10-16T06:54:32;2.05;;;1.60;;
37905;SDS011;23739;51.448;6.674;2022-10-16T06:56:58;2.03;;;1.38;;
37905;SDS011;23739;51.448;6.674;2022-10-16T06:59:25;2.47;;;1.35;;
37905;SDS011;23739;51.448;6.674;2022-10-16T07:01:51;3.47;;;2.17;;
37905;SDS011;23739;51.448;6.674;2022-10-16T07:12:04;1.92;;;1.60;;
37905;SDS011;23739;51.448;6.674;2022-10-16T07:14:31;4.15;;;2.00;;
37905;SDS011;23739;51.448;6.674;2022-10-16T07:16:57;3.63;;;1.75;;
37905;SDS011;23739;51.448;6.674;2022-10-16T07:19:23;3.13;;;1.70;;
37905;SDS011;23739;51.448;6.674;2022-10-16T07:21:50;2.55;;;1.75;;
37905;SDS011;23739;51.448;6.674;2022-10-16T07:24:16;4.40;;;2.05;;
37905;SDS011;23739;51.448;6.674;2022-10-16T07:26:43;2.33;;;1.98;;
37905;SDS011;23739;51.448;6.674;2022-10-16T07:29:16;6.45;;;2.00;;
37905;SDS011;23739;51.448;6.674;2022-10-16T07:31:43;3.33;;;1.70;;
37905;SDS011;23739;51.448;6.674;2022-10-16T07:34:10;3.47;;;1.70;;
37905;SDS011;23739;51.448;6.674;2022-10-16T07:36:36;4.05;;;1.60;;
37905;SDS011;23739;51.448;6.674;2022-10-16T07:39:03;6.15;;;2.17;;
37905;SDS011;23739;51.448;6.674;2022-10-16T07:41:29;2.28;;;1.70;;
37905;SDS011;23739;51.448;6.674;2022-10-16T07:43:57;2.63;;;1.80;;
37905;SDS011;23739;51.448;6.674;2022-10-16T07:46:27;5.80;;;1.73;;
37905;SDS011;23739;51.448;6.674;2022-10-16T07:48:53;2.45;;;1.70;;
37905;SDS011;23739;51.448;6.674;2022-10-16T07:51:21;5.65;;;2.80;;
37905;SDS011;23739;51.448;6.674;2022-10-16T07:53:47;3.42;;;2.08;;
37905;SDS011;23739;51.448;6.674;2022-10-16T07:56:14;7.65;;;1.70;;
37905;SDS011;23739;51.448;6.674;2022-10-16T07:58:40;4.45;;;1.50;;
37905;SDS011;23739;51.448;6.674;2022-10-16T08:01:07;2.17;;;1.75;;
37905;SDS011;23739;51.448;6.674;2022-10-16T08:03:34;3.13;;;1.70;;
37905;SDS011;23739;51.448;6.674;2022-10-16T08:06:00;1.75;;;1.63;;
37905;SDS011;23739;51.448;6.674;2022-10-16T08:08:27;1.50;;;1.40;;
37905;SDS011;23739;51.448;6.674;2022-10-16T08:10:53;4.88;;;1.73;;
37905;SDS011;23739;51.448;6.674;2022-10-16T08:13:19;3.00;;;1.77;;
37905;SDS011;23739;51.448;6.674;2022-10-16T08:15:46;1.77;;;1.48;;
37905;SDS011;23739;51.448;6.674;2022-10-16T08:18:13;2.72;;;1.45;;
37905;SDS011;23739;51.448;6.674;2022-10-16T08:20:39;2.97;;;1.40;;
37905;SDS011;23739;51.448;6.674;2022-10-16T08:23:06;4.30;;;1.75;;
37905;SDS011;23739;51.448;6.674;2022-10-16T08:25:35;2.45;;;1.40;;
37905;SDS011;23739;51.448;6.674;2022-10-16T08:28:05;2.17;;;1.40;;
37905;SDS011;23739;51.448;6.674;2022-10-16T08:30:31;3.33;;;1.13;;
37905;SDS011;23739;51.448;6.674;2022-10-16T08:32:57;1.67;;;1.27;;
37905;SDS011;23739;51.448;6.674;2022-10-16T08:35:24;4.90;;;1.13;;
37905;SDS011;23739;51.448;6.674;2022-10-16T08:37:50;2.42;;;1.70;;
37905;SDS011;23739;51.448;6.674;2022-10-16T08:40:17;2.63;;;1.10;;
37905;SDS011;23739;51.448;6.674;2022-10-16T08:42:53;3.95;;;1.33;;
37905;SDS011;23739;51.448;6.674;2022-10-16T08:46:05;3.08;;;1.10;;
37905;SDS011;23739;51.448;6.674;2022-10-16T08:50:38;3.55;;;1.02;;
37905;SDS011;23739;51.448;6.674;2022-10-16T08:53:05;6.45;;;1.00;;
37905;SDS011;23739;51.448;6.674;2022-10-16T08:55:34;2.63;;;0.85;;
37905;SDS011;23739;51.448;6.674;2022-10-16T08:58:07;4.75;;;1.25;;
37905;SDS011;23739;51.448;6.674;2022-10-16T09:00:36;1.30;;;0.80;;
37905;SDS011;23739;51.448;6.674;2022-10-16T09:11:10;3.00;;;1.23;;
37905;SDS011;23739;51.448;6.674;2022-10-16T09:18:41;6.28;;;1.40;;
37905;SDS011;23739;51.448;6.674;2022-10-16T09:21:29;2.88;;;0.98;;
37905;SDS011;23739;51.448;6.674;2022-10-16T09:24:15;1.52;;;0.68;;
37905;SDS011;23739;51.448;6.674;2022-10-16T09:26:42;1.48;;;0.75;;
37905;SDS011;23739;51.448;6.674;2022-10-16T09:29:12;1.17;;;0.80;;
37905;SDS011;23739;51.448;6.674;2022-10-16T09:31:39;2.85;;;0.80;;
37905;SDS011;23739;51.448;6.674;2022-10-16T09:34:05;3.90;;;0.85;;
37905;SDS011;23739;51.448;6.674;2022-10-16T09:36:39;2.28;;;1.02;;
37905;SDS011;23739;51.448;6.674;2022-10-16T09:39:07;5.00;;;1.00;;
37905;SDS011;23739;51.448;6.674;2022-10-16T09:41:43;3.53;;;0.82;;
37905;SDS011;23739;51.448;6.674;2022-10-16T09:44:28;1.85;;;0.60;;
37905;SDS011;23739;51.448;6.674;2022-10-16T09:47:02;3.67;;;0.80;;
37905;SDS011;23739;51.448;6.674;2022-10-16T09:49:28;2.63;;;0.73;;
37905;SDS011;23739;51.448;6.674;2022-10-16T09:52:04;6.15;;;1.05;;
37905;SDS011;23739;51.448;6.674;2022-10-16T09:54:31;2.85;;;0.65;;
37905;SDS011;23739;51.448;6.674;2022-10-16T09:57:07;3.85;;;1.40;;
37905;SDS011;23739;51.448;6.674;2022-10-16T09:59:33;2.08;;;0.60;;
37905;SDS011;23739;51.448;6.674;2022-10-16T10:02:04;0.50;;;0.50;;
37905;SDS011;23739;51.448;6.674;2022-10-16T10:04:57;4.85;;;0.70;;
37905;SDS011;23739;51.448;6.674;2022-10-16T10:07:27;4.13;;;1.65;;
37905;SDS011;23739;51.448;6.674;2022-10-16T10:09:54;2.20;;;0.63;;
37905;SDS011;23739;51.448;6.674;2022-10-16T10:12:21;2.50;;;0.70;;
37905;SDS011;23739;51.448;6.674;2022-10-16T10:14:49;1.42;;;0.90;;
37905;SDS011;23739;51.448;6.674;2022-10-16T10:24:40;2.40;;;0.75;;
37905;SDS011;23739;51.448;6.674;2022-10-16T10:27:08;2.42;;;0.77;;
37905;SDS011;23739;51.448;6.674;2022-10-16T10:37:04;1.45;;;0.77;;
37905;SDS011;23739;51.448;6.674;2022-10-16T10:39:33;3.90;;;0.60;;
37905;SDS011;23739;51.448;6.674;2022-10-16T10:44:41;3.13;;;0.73;;
37905;SDS011;23739;51.448;6.674;2022-10-16T10:52:49;3.08;;;0.68;;
37905;SDS011;23739;51.448;6.674;2022-10-16T11:05:36;3.63;;;0.80;;
37905;SDS011;23739;51.448;6.674;2022-10-16T11:16:11;0.93;;;0.60;;
37905;SDS011;23739;51.448;6.674;2022-10-16T11:18:42;1.52;;;0.60;;
37905;SDS011;23739;51.448;6.674;2022-10-16T11:21:13;2.30;;;0.55;;
37905;SDS011;23739;51.448;6.674;2022-10-16T11:23:42;2.78;;;0.68;;
37905;SDS011;23739;51.448;6.674;2022-10-16T11:26:19;2.60;;;0.80;;
37905;SDS011;23739;51.448;6.674;2022-10-16T11:28:56;2.58;;;0.50;;
37905;SDS011;23739;51.448;6.674;2022-10-16T11:36:36;1.88;;;0.70;;
37905;SDS011;23739;51.448;6.674;2022-10-16T11:39:08;1.40;;;0.65;;
37905;SDS011;23739;51.448;6.674;2022-10-16T11:41:41;3.20;;;0.73;;
37905;SDS011;23739;51.448;6.674;2022-10-16T11:49:39;4.43;;;0.95;;
37905;SDS011;23739;51.448;6.674;2022-10-16T11:54:44;8.27;;;0.85;;
37905;SDS011;23739;51.448;6.674;2022-10-16T11:57:22;1.83;;;0.60;;
37905;SDS011;23739;51.448;6.674;2022-10-16T12:02:23;1.25;;;0.63;;
37905;SDS011;23739;51.448;6.674;2022-10-16T12:04:56;4.07;;;1.50;;
37905;SDS011;23739;51.448;6.674;2022-10-16T12:07:27;3.70;;;1.00;;
37905;SDS011;23739;51.448;6.674;2022-10-16T12:09:56;3.42;;;0.75;;
37905;SDS011;23739;51.448;6.674;2022-10-16T12:12:26;3.33;;;0.63;;
37905;SDS011;23739;51.448;6.674;2022-10-16T12:15:26;3.30;;;0.57;;
37905;SDS011;23739;51.448;6.674;2022-10-16T12:17:45;0.60;;;0.60;;
37905;SDS011;23739;51.448;6.674;2022-10-16T12:22:41;2.88;;;1.35;;
37905;SDS011;23739;51.448;6.674;2022-10-16T12:30:37;1.58;;;0.77;;
37905;SDS011;23739;51.448;6.674;2022-10-16T12:33:05;2.65;;;1.00;;
37905;SDS011;23739;51.448;6.674;2022-10-16T12:35:33;4.32;;;1.50;;
37905;SDS011;23739;51.448;6.674;2022-10-16T12:38:06;4.07;;;0.65;;
37905;SDS011;23739;51.448;6.674;2022-10-16T12:40:34;1.33;;;0.50;;
37905;SDS011;23739;51.448;6.674;2022-10-16T12:43:11;0.95;;;0.65;;
37905;SDS011;23739;51.448;6.674;2022-10-16T12:45:37;1.13;;;0.43;;
37905;SDS011;23739;51.448;6.674;2022-10-16T12:48:04;2.15;;;0.70;;
37905;SDS011;23739;51.448;6.674;2022-10-16T12:50:44;3.45;;;0.85;;
37905;SDS011;23739;51.448;6.674;2022-10-16T12:53:20;4.30;;;0.80;;
37905;SDS011;23739;51.448;6.674;2022-10-16T12:56:00;2.70;;;1.75;;
37905;SDS011;23739;51.448;6.674;2022-10-16T13:00:57;2.60;;;1.30;;
37905;SDS011;23739;51.448;6.674;2022-10-16T13:03:52;2.63;;;0.80;;
37905;SDS011;23739;51.448;6.674;2022-10-16T13:11:27;1.35;;;0.70;;
37905;SDS011;23739;51.448;6.674;2022-10-16T13:16:33;4.03;;;0.63;;
37905;SDS011;23739;51.448;6.674;2022-10-16T13:27:01;4.77;;;1.00;;
37905;SDS011;23739;51.448;6.674;2022-10-16T13:29:30;3.63;;;0.40;;
37905;SDS011;23739;51.448;6.674;2022-10-16T13:31:57;3.05;;;0.70;;
37905;SDS011;23739;51.448;6.674;2022-10-16T13:34:24;2.13;;;0.63;;
37905;SDS011;23739;51.448;6.674;2022-10-16T13:36:51;1.52;;;0.57;;
37905;SDS011;23739;51.448;6.674;2022-10-16T13:39:25;0.85;;;0.40;;
37905;SDS011;23739;51.448;6.674;2022-10-16T13:42:01;1.27;;;0.50;;
37905;SDS011;23739;51.448;6.674;2022-10-16T13:44:30;6.28;;;0.80;;
37905;SDS011;23739;51.448;6.674;2022-10-16T13:46:58;2.85;;;1.38;;
37905;SDS011;23739;51.448;6.674;2022-10-16T13:49:26;3.40;;;1.00;;
37905;SDS011;23739;51.448;6.674;2022-10-16T13:51:55;2.45;;;0.80;;
37905;SDS011;23739;51.448;6.674;2022-10-16T13:54:22;2.22;;;0.93;;
37905;SDS011;23739;51.448;6.674;2022-10-16T13:56:48;4.45;;;1.20;;
37905;SDS011;23739;51.448;6.674;2022-10-16T13:59:32;2.60;;;0.80;;
37905;SDS011;23739;51.448;6.674;2022-10-16T14:02:00;1.75;;;0.52;;
37905;SDS011;23739;51.448;6.674;2022-10-16T14:04:31;2.03;;;0.95;;
37905;SDS011;23739;51.448;6.674;2022-10-16T14:06:57;1.55;;;0.50;;
37905;SDS011;23739;51.448;6.674;2022-10-16T14:09:25;1.58;;;0.77;;
37905;SDS011;23739;51.448;6.674;2022-10-16T14:11:58;2.28;;;0.90;;
37905;SDS011;23739;51.448;6.674;2022-10-16T14:14:26;2.15;;;1.00;;
37905;SDS011;23739;51.448;6.674;2022-10-16T14:16:53;2.95;;;0.70;;
37905;SDS011;23739;51.448;6.674;2022-10-16T14:19:29;2.17;;;1.00;;
37905;SDS011;23739;51.448;6.674;2022-10-16T14:21:56;3.28;;;1.10;;
37905;SDS011;23739;51.448;6.674;2022-10-16T14:26:51;3.10;;;1.35;;
37905;SDS011;23739;51.448;6.674;2022-10-16T14:29:20;2.85;;;1.05;;
37905;SDS011;23739;51.448;6.674;2022-10-16T14:31:59;1.63;;;0.65;;
37905;SDS011;23739;51.448;6.674;2022-10-16T14:36:53;4.28;;;1.33;;
37905;SDS011;23739;51.448;6.674;2022-10-16T14:39:20;3.40;;;0.60;;
37905;SDS011;23739;51.448;6.674;2022-10-16T14:41:48;1.98;;;0.60;;
37905;SDS011;23739;51.448;6.674;2022-10-16T14:44:15;1.77;;;0.55;;
37905;SDS011;23739;51.448;6.674;2022-10-16T14:46:43;2.67;;;0.90;;
37905;SDS011;23739;51.448;6.674;2022-10-16T14:51:39;1.27;;;0.60;;
37905;SDS011;23739;51.448;6.674;2022-10-16T14:54:10;4.85;;;0.90;;
37905;SDS011;23739;51.448;6.674;2022-10-16T14:56:50;2.33;;;1.02;;
37905;SDS011;23739;51.448;6.674;2022-10-16T15:01:46;11.23;;;5.68;;
37905;SDS011;23739;51.448;6.674;2022-10-16T15:04:12;3.55;;;1.60;;
37905;SDS011;23739;51.448;6.674;2022-10-16T15:06:39;3.60;;;1.00;;
37905;SDS011;23739;51.448;6.674;2022-10-16T15:09:05;2.17;;;0.98;;
37905;SDS011;23739;51.448;6.674;2022-10-16T15:11:31;4.20;;;0.88;;
37905;SDS011;23739;51.448;6.674;2022-10-16T15:13:58;2.00;;;1.10;;
37905;SDS011;23739;51.448;6.674;2022-10-16T15:16:24;1.38;;;0.90;;
37905;SDS011;23739;51.448;6.674;2022-10-16T15:18:50;2.30;;;1.00;;
37905;SDS011;23739;51.448;6.674;2022-10-16T15:21:24;3.75;;;1.05;;
37905;SDS011;23739;51.448;6.674;2022-10-16T15:23:51;5.93;;;1.55;;
37905;SDS011;23739;51.448;6.674;2022-10-16T15:26:17;3.70;;;1.00;;
37905;SDS011;23739;51.448;6.674;2022-10-16T15:28:43;2.97;;;1.00;;
37905;SDS011;23739;51.448;6.674;2022-10-16T15:31:09;2.85;;;1.13;;
37905;SDS011;23739;51.448;6.674;2022-10-16T15:33:35;2.35;;;1.08;;
37905;SDS011;23739;51.448;6.674;2022-10-16T15:36:02;3.80;;;1.23;;
37905;SDS011;23739;51.448;6.674;2022-10-16T15:38:28;2.38;;;0.93;;
37905;SDS011;23739;51.448;6.674;2022-10-16T15:40:55;2.83;;;0.85;;
37905;SDS011;23739;51.448;6.674;2022-10-16T15:43:21;2.67;;;1.08;;
37905;SDS011;23739;51.448;6.674;2022-10-16T15:45:54;6.22;;;1.40;;
37905;SDS011;23739;51.448;6.674;2022-10-16T15:48:24;4.32;;;1.00;;
37905;SDS011;23739;51.448;6.674;2022-10-16T15:50:50;1.88;;;1.00;;
37905;SDS011;23739;51.448;6.674;2022-10-16T15:53:16;2.72;;;0.93;;
37905;SDS011;23739;51.448;6.674;2022-10-16T15:55:42;1.63;;;1.00;;
37905;SDS011;23739;51.448;6.674;2022-10-16T15:58:08;3.47;;;1.40;;
37905;SDS011;23739;51.448;6.674;2022-10-16T16:00:35;3.70;;;1.40;;
37905;SDS011;23739;51.448;6.674;2022-10-16T16:03:01;2.90;;;1.20;;
37905;SDS011;23739;51.448;6.674;2022-10-16T16:05:27;3.28;;;1.40;;
37905;SDS011;23739;51.448;6.674;2022-10-16T16:07:53;3.25;;;1.52;;
37905;SDS011;23739;51.448;6.674;2022-10-16T16:10:19;2.85;;;1.70;;
37905;SDS011;23739;51.448;6.674;2022-10-16T16:12:46;2.90;;;1.55;;
37905;SDS011;23739;51.448;6.674;2022-10-16T16:15:16;4.00;;;1.60;;
37905;SDS011;23739;51.448;6.674;2022-10-16T16:17:43;2.47;;;1.60;;
37905;SDS011;23739;51.448;6.674;2022-10-16T16:20:09;6.28;;;2.03;;
37905;SDS011;23739;51.448;6.674;2022-10-16T16:22:35;4.82;;;1.77;;
37905;SDS011;23739;51.448;6.674;2022-10-16T16:25:01;4.43;;;2.55;;
37905;SDS011;23739;51.448;6.674;2022-10-16T16:27:28;8.27;;;4.32;;
37905;SDS011;23739;51.448;6.674;2022-10-16T16:29:58;9.50;;;3.58;;
37905;SDS011;23739;51.448;6.674;2022-10-16T16:32:24;6.85;;;3.95;;
37905;SDS011;23739;51.448;6.674;2022-10-16T16:34:50;6.85;;;4.47;;
37905;SDS011;23739;51.448;6.674;2022-10-16T16:37:17;7.20;;;4.40;;
37905;SDS011;23739;51.448;6.674;2022-10-16T16:39:43;5.20;;;4.00;;
37905;SDS011;23739;51.448;6.674;2022-10-16T16:42:09;8.65;;;4.28;;
37905;SDS011;23739;51.448;6.674;2022-10-16T16:44:35;4.93;;;3.50;;
37905;SDS011;23739;51.448;6.674;2022-10-16T16:47:02;6.60;;;3.92;;
37905;SDS011;23739;51.448;6.674;2022-10-16T16:49:28;7.05;;;3.78;;
37905;SDS011;23739;51.448;6.674;2022-10-16T16:51:54;6.40;;;3.72;;
37905;SDS011;23739;51.448;6.674;2022-10-16T16:54:21;6.40;;;3.90;;
37905;SDS011;23739;51.448;6.674;2022-10-16T16:56:47;6.70;;;4.70;;
37905;SDS011;23739;51.448;6.674;2022-10-16T16:59:14;9.65;;;4.65;;
37905;SDS011;23739;51.448;6.674;2022-10-16T17:01:41;6.13;;;3.97;;
37905;SDS011;23739;51.448;6.674;2022-10-16T17:04:07;6.82;;;3.72;;
37905;SDS011;23739;51.448;6.674;2022-10-16T17:06:33;10.88;;;3.60;;
37905;SDS011;23739;51.448;6.674;2022-10-16T17:09:03;5.75;;;3.22;;